Rome, Italy

12:20 AM CEST on August 29, 2015 (GMT +0200)
Ciampino | | Change Station
CLOSE
Current Station
Airport
Location: Rome Ciampino,
Elevation: 344 ft
Nearby Weather Stations

Elev 344 ft 41.81 °N, 12.58 °E | Updated 30 minutes ago

Clear
Clear
70 °F
Feels Like 70 °F
N
1
Wind Variable Wind from North

Today
High -- | Low -- °F
--% Chance of Precip.
Yesterday
High -- | Low -- °F
Precip. -- in
6:32 AM 7:49 PM
Waxing Gibbous, 99% visible
Pressure 30.15 in
Visibility -9999.0 miles
Clouds
Dew Point 63 °F
Humidity 78%
Rainfall 0.00 in
Snow Depth Not available.
UV Not available.
Pollen Not available.
Air Quality Not available.
Flu Activity Not available.
METAR LIRA 282150Z 01001KT CAVOK 21/17 Q1021
Pressure 30.15 in
Visibility -9999.0 miles
Clouds
Dew Point 63 °F
Humidity 78%
Rainfall 0.00 in
Snow Depth Not available.
UV Not available.
Pollen Not available.
Air Quality Not available.
Flu Activity Not available.
METAR LIRA 282150Z 01001KT CAVOK 21/17 Q1021

10-Day Weather Forecast

×

Almanac

Astronomy

Aug. 29, 2015 Rise Set
Actual Time
Civil Twilight
Nautical Twilight
Astronomical Twilight
Moon
Length of Visible Light
Length of Day
Tomorrow will be .
, % of the Moon is Illuminated

Today's Extremes

Country Highs Country Lows

Community

WunderPhotos

Upload Photos

1,850,515 photos uploaded!

WunderBlogs® & News

Nearby

Air Quality

  Air Quality AQ Index Pollutant
Not available.

Snow Depth

Station Depth Elevation

Earthquake Activity

City Distance Mag. Time & Date
Minimum magnitude displayed is 2.5.

Coastal Water Temperatures

Place Temperature

Stations

Nearby Weather Stations

Station Location Temp. Windchill Dew Point Humidity Wind Precip. Elev Updated Type